sensor_id;sensor_type;location;lat;lon;timestamp;P1;durP1;ratioP1;P2;durP2;ratioP2
18360;SDS011;9308;48.550;9.108;2022-12-20T00:01:27;27.50;;;24.50;;
18360;SDS011;9308;48.550;9.108;2022-12-20T00:03:54;27.30;;;24.60;;
18360;SDS011;9308;48.550;9.108;2022-12-20T00:06:22;26.40;;;23.70;;
18360;SDS011;9308;48.550;9.108;2022-12-20T00:08:52;26.73;;;23.83;;
18360;SDS011;9308;48.550;9.108;2022-12-20T00:11:22;29.33;;;24.37;;
18360;SDS011;9308;48.550;9.108;2022-12-20T00:13:48;30.43;;;24.87;;
18360;SDS011;9308;48.550;9.108;2022-12-20T00:16:24;28.23;;;25.30;;
18360;SDS011;9308;48.550;9.108;2022-12-20T00:18:52;27.57;;;23.73;;
18360;SDS011;9308;48.550;9.108;2022-12-20T00:21:19;30.03;;;24.60;;
18360;SDS011;9308;48.550;9.108;2022-12-20T00:23:45;27.27;;;24.33;;
18360;SDS011;9308;48.550;9.108;2022-12-20T00:26:12;27.93;;;25.03;;
18360;SDS011;9308;48.550;9.108;2022-12-20T00:28:42;27.60;;;24.60;;
18360;SDS011;9308;48.550;9.108;2022-12-20T00:31:09;29.30;;;26.20;;
18360;SDS011;9308;48.550;9.108;2022-12-20T00:33:36;31.27;;;28.07;;
18360;SDS011;9308;48.550;9.108;2022-12-20T00:36:03;33.63;;;27.10;;
18360;SDS011;9308;48.550;9.108;2022-12-20T00:38:30;30.93;;;27.57;;
18360;SDS011;9308;48.550;9.108;2022-12-20T00:41:04;28.90;;;25.80;;
18360;SDS011;9308;48.550;9.108;2022-12-20T00:43:34;34.03;;;28.13;;
18360;SDS011;9308;48.550;9.108;2022-12-20T00:46:00;32.67;;;29.17;;
18360;SDS011;9308;48.550;9.108;2022-12-20T00:48:27;31.23;;;26.40;;
18360;SDS011;9308;48.550;9.108;2022-12-20T00:50:57;32.80;;;28.87;;
18360;SDS011;9308;48.550;9.108;2022-12-20T00:53:27;31.03;;;27.73;;
18360;SDS011;9308;48.550;9.108;2022-12-20T00:55:53;32.53;;;28.90;;
18360;SDS011;9308;48.550;9.108;2022-12-20T00:58:18;30.17;;;27.07;;
18360;SDS011;9308;48.550;9.108;2022-12-20T01:00:44;31.63;;;28.20;;
18360;SDS011;9308;48.550;9.108;2022-12-20T01:03:10;30.10;;;26.20;;
18360;SDS011;9308;48.550;9.108;2022-12-20T01:05:36;30.40;;;27.10;;
18360;SDS011;9308;48.550;9.108;2022-12-20T01:08:02;31.50;;;28.13;;
18360;SDS011;9308;48.550;9.108;2022-12-20T01:10:27;32.90;;;28.10;;
18360;SDS011;9308;48.550;9.108;2022-12-20T01:12:53;31.03;;;27.70;;
18360;SDS011;9308;48.550;9.108;2022-12-20T01:15:19;31.67;;;28.27;;
18360;SDS011;9308;48.550;9.108;2022-12-20T01:17:45;32.33;;;28.27;;
18360;SDS011;9308;48.550;9.108;2022-12-20T01:20:11;28.93;;;26.03;;
18360;SDS011;9308;48.550;9.108;2022-12-20T01:22:37;32.97;;;29.40;;
18360;SDS011;9308;48.550;9.108;2022-12-20T01:25:02;30.90;;;27.70;;
18360;SDS011;9308;48.550;9.108;2022-12-20T01:27:28;31.93;;;28.43;;
18360;SDS011;9308;48.550;9.108;2022-12-20T01:29:54;31.17;;;27.97;;
18360;SDS011;9308;48.550;9.108;2022-12-20T01:32:19;31.27;;;27.93;;
18360;SDS011;9308;48.550;9.108;2022-12-20T01:34:45;28.00;;;25.00;;
18360;SDS011;9308;48.550;9.108;2022-12-20T01:37:11;28.20;;;25.00;;
18360;SDS011;9308;48.550;9.108;2022-12-20T01:39:36;27.73;;;24.67;;
18360;SDS011;9308;48.550;9.108;2022-12-20T01:42:03;29.00;;;25.97;;
18360;SDS011;9308;48.550;9.108;2022-12-20T01:46:54;28.10;;;25.10;;
18360;SDS011;9308;48.550;9.108;2022-12-20T01:49:25;28.10;;;24.57;;
18360;SDS011;9308;48.550;9.108;2022-12-20T01:52:04;27.80;;;23.90;;
18360;SDS011;9308;48.550;9.108;2022-12-20T01:54:38;28.07;;;25.03;;
18360;SDS011;9308;48.550;9.108;2022-12-20T01:57:12;26.70;;;22.83;;
18360;SDS011;9308;48.550;9.108;2022-12-20T01:59:42;26.23;;;23.53;;
18360;SDS011;9308;48.550;9.108;2022-12-20T02:02:11;25.97;;;23.20;;
18360;SDS011;9308;48.550;9.108;2022-12-20T02:04:37;24.77;;;22.20;;
18360;SDS011;9308;48.550;9.108;2022-12-20T02:07:03;24.47;;;21.87;;
18360;SDS011;9308;48.550;9.108;2022-12-20T02:09:30;24.70;;;21.47;;
18360;SDS011;9308;48.550;9.108;2022-12-20T02:14:44;24.27;;;21.73;;
18360;SDS011;9308;48.550;9.108;2022-12-20T02:23:13;24.73;;;22.27;;
18360;SDS011;9308;48.550;9.108;2022-12-20T02:31:41;21.83;;;19.73;;
18360;SDS011;9308;48.550;9.108;2022-12-20T02:34:11;22.37;;;20.10;;
18360;SDS011;9308;48.550;9.108;2022-12-20T02:36:37;23.97;;;21.47;;
18360;SDS011;9308;48.550;9.108;2022-12-20T02:39:03;23.03;;;20.70;;
18360;SDS011;9308;48.550;9.108;2022-12-20T02:41:31;24.63;;;22.00;;
18360;SDS011;9308;48.550;9.108;2022-12-20T02:44:10;21.73;;;19.57;;
18360;SDS011;9308;48.550;9.108;2022-12-20T02:46:57;21.47;;;19.17;;
18360;SDS011;9308;48.550;9.108;2022-12-20T02:49:27;22.27;;;20.17;;
18360;SDS011;9308;48.550;9.108;2022-12-20T02:51:55;22.80;;;20.50;;
18360;SDS011;9308;48.550;9.108;2022-12-20T02:54:23;23.47;;;20.97;;
18360;SDS011;9308;48.550;9.108;2022-12-20T02:56:50;25.97;;;21.63;;
18360;SDS011;9308;48.550;9.108;2022-12-20T02:59:22;23.30;;;21.10;;
18360;SDS011;9308;48.550;9.108;2022-12-20T03:01:53;22.00;;;20.00;;
18360;SDS011;9308;48.550;9.108;2022-12-20T03:04:20;23.23;;;21.03;;
18360;SDS011;9308;48.550;9.108;2022-12-20T03:06:56;23.63;;;21.23;;
18360;SDS011;9308;48.550;9.108;2022-12-20T03:09:26;24.73;;;22.27;;
18360;SDS011;9308;48.550;9.108;2022-12-20T03:11:54;21.73;;;19.53;;
18360;SDS011;9308;48.550;9.108;2022-12-20T03:14:20;22.03;;;19.40;;
18360;SDS011;9308;48.550;9.108;2022-12-20T03:16:46;21.87;;;19.67;;
18360;SDS011;9308;48.550;9.108;2022-12-20T03:19:11;24.40;;;21.83;;
18360;SDS011;9308;48.550;9.108;2022-12-20T03:21:37;24.10;;;21.60;;
18360;SDS011;9308;48.550;9.108;2022-12-20T03:24:02;22.97;;;20.63;;
18360;SDS011;9308;48.550;9.108;2022-12-20T03:26:28;22.60;;;20.33;;
18360;SDS011;9308;48.550;9.108;2022-12-20T03:28:53;25.30;;;22.10;;
18360;SDS011;9308;48.550;9.108;2022-12-20T03:31:19;21.93;;;19.80;;
18360;SDS011;9308;48.550;9.108;2022-12-20T03:33:44;22.83;;;20.53;;
18360;SDS011;9308;48.550;9.108;2022-12-20T03:36:10;23.00;;;20.70;;
18360;SDS011;9308;48.550;9.108;2022-12-20T03:38:35;21.20;;;18.90;;
18360;SDS011;9308;48.550;9.108;2022-12-20T03:41:01;23.50;;;21.13;;
18360;SDS011;9308;48.550;9.108;2022-12-20T03:43:26;24.13;;;21.63;;
18360;SDS011;9308;48.550;9.108;2022-12-20T03:45:51;24.43;;;20.57;;
18360;SDS011;9308;48.550;9.108;2022-12-20T03:48:17;24.73;;;21.83;;
18360;SDS011;9308;48.550;9.108;2022-12-20T03:50:42;23.83;;;21.43;;
18360;SDS011;9308;48.550;9.108;2022-12-20T03:53:08;23.00;;;20.47;;
18360;SDS011;9308;48.550;9.108;2022-12-20T03:55:33;21.00;;;19.00;;
18360;SDS011;9308;48.550;9.108;2022-12-20T03:57:59;22.13;;;19.83;;
18360;SDS011;9308;48.550;9.108;2022-12-20T04:00:24;21.77;;;19.53;;
18360;SDS011;9308;48.550;9.108;2022-12-20T04:02:50;20.93;;;18.83;;
18360;SDS011;9308;48.550;9.108;2022-12-20T04:05:16;19.20;;;17.30;;
18360;SDS011;9308;48.550;9.108;2022-12-20T04:07:42;20.10;;;18.10;;
18360;SDS011;9308;48.550;9.108;2022-12-20T04:10:09;18.47;;;16.60;;
18360;SDS011;9308;48.550;9.108;2022-12-20T04:12:35;17.43;;;15.73;;
18360;SDS011;9308;48.550;9.108;2022-12-20T04:15:01;20.20;;;18.20;;
18360;SDS011;9308;48.550;9.108;2022-12-20T04:17:26;17.30;;;15.70;;
18360;SDS011;9308;48.550;9.108;2022-12-20T04:19:52;19.10;;;17.20;;
18360;SDS011;9308;48.550;9.108;2022-12-20T04:22:17;18.73;;;16.73;;
18360;SDS011;9308;48.550;9.108;2022-12-20T04:24:43;18.47;;;16.67;;
18360;SDS011;9308;48.550;9.108;2022-12-20T04:27:08;16.90;;;15.20;;
18360;SDS011;9308;48.550;9.108;2022-12-20T04:29:34;16.73;;;15.10;;
18360;SDS011;9308;48.550;9.108;2022-12-20T04:31:59;17.43;;;15.73;;
18360;SDS011;9308;48.550;9.108;2022-12-20T04:34:25;18.47;;;16.63;;
18360;SDS011;9308;48.550;9.108;2022-12-20T04:36:50;17.70;;;16.00;;
18360;SDS011;9308;48.550;9.108;2022-12-20T04:39:15;16.27;;;14.67;;
18360;SDS011;9308;48.550;9.108;2022-12-20T04:41:41;18.57;;;16.60;;
18360;SDS011;9308;48.550;9.108;2022-12-20T04:44:06;19.33;;;17.33;;
18360;SDS011;9308;48.550;9.108;2022-12-20T04:46:32;17.37;;;15.67;;
18360;SDS011;9308;48.550;9.108;2022-12-20T04:48:57;17.37;;;15.23;;
18360;SDS011;9308;48.550;9.108;2022-12-20T04:51:23;18.20;;;16.50;;
18360;SDS011;9308;48.550;9.108;2022-12-20T04:53:48;19.37;;;17.27;;
18360;SDS011;9308;48.550;9.108;2022-12-20T04:58:44;19.27;;;17.23;;
18360;SDS011;9308;48.550;9.108;2022-12-20T05:01:10;18.77;;;16.50;;
18360;SDS011;9308;48.550;9.108;2022-12-20T05:03:36;17.93;;;16.13;;
18360;SDS011;9308;48.550;9.108;2022-12-20T05:06:02;17.37;;;15.57;;
18360;SDS011;9308;48.550;9.108;2022-12-20T05:08:28;19.70;;;17.60;;
18360;SDS011;9308;48.550;9.108;2022-12-20T05:10:53;17.80;;;15.90;;
18360;SDS011;9308;48.550;9.108;2022-12-20T05:13:19;21.33;;;19.03;;
18360;SDS011;9308;48.550;9.108;2022-12-20T05:15:44;18.00;;;16.10;;
18360;SDS011;9308;48.550;9.108;2022-12-20T05:18:15;17.57;;;15.67;;
18360;SDS011;9308;48.550;9.108;2022-12-20T05:20:40;17.33;;;15.53;;
18360;SDS011;9308;48.550;9.108;2022-12-20T05:23:06;16.33;;;14.73;;
18360;SDS011;9308;48.550;9.108;2022-12-20T05:25:52;19.60;;;16.70;;
18360;SDS011;9308;48.550;9.108;2022-12-20T05:28:36;18.07;;;16.27;;
18360;SDS011;9308;48.550;9.108;2022-12-20T05:31:02;17.57;;;15.87;;
18360;SDS011;9308;48.550;9.108;2022-12-20T05:33:28;16.63;;;15.03;;
18360;SDS011;9308;48.550;9.108;2022-12-20T05:35:54;15.17;;;13.73;;
18360;SDS011;9308;48.550;9.108;2022-12-20T05:38:20;16.80;;;15.27;;
18360;SDS011;9308;48.550;9.108;2022-12-20T05:40:47;17.40;;;15.70;;
18360;SDS011;9308;48.550;9.108;2022-12-20T05:43:13;19.40;;;17.33;;
18360;SDS011;9308;48.550;9.108;2022-12-20T05:45:39;18.77;;;16.77;;
18360;SDS011;9308;48.550;9.108;2022-12-20T05:48:05;17.13;;;15.37;;
18360;SDS011;9308;48.550;9.108;2022-12-20T05:50:31;17.80;;;16.07;;
18360;SDS011;9308;48.550;9.108;2022-12-20T05:52:56;16.60;;;14.90;;
18360;SDS011;9308;48.550;9.108;2022-12-20T05:55:22;17.17;;;15.33;;
18360;SDS011;9308;48.550;9.108;2022-12-20T05:57:47;18.40;;;16.50;;
18360;SDS011;9308;48.550;9.108;2022-12-20T06:00:13;19.17;;;17.33;;
18360;SDS011;9308;48.550;9.108;2022-12-20T06:02:39;20.37;;;18.27;;
18360;SDS011;9308;48.550;9.108;2022-12-20T06:05:05;17.87;;;16.00;;
18360;SDS011;9308;48.550;9.108;2022-12-20T06:07:30;17.57;;;15.90;;
18360;SDS011;9308;48.550;9.108;2022-12-20T06:09:56;18.90;;;16.60;;
18360;SDS011;9308;48.550;9.108;2022-12-20T06:12:22;18.80;;;16.80;;
18360;SDS011;9308;48.550;9.108;2022-12-20T06:14:48;19.70;;;17.70;;
18360;SDS011;9308;48.550;9.108;2022-12-20T06:17:14;17.33;;;14.90;;
18360;SDS011;9308;48.550;9.108;2022-12-20T06:19:40;17.70;;;16.00;;
18360;SDS011;9308;48.550;9.108;2022-12-20T06:22:06;17.43;;;15.63;;
18360;SDS011;9308;48.550;9.108;2022-12-20T06:24:35;17.63;;;15.83;;
18360;SDS011;9308;48.550;9.108;2022-12-20T06:27:02;17.50;;;15.90;;
18360;SDS011;9308;48.550;9.108;2022-12-20T06:29:28;17.00;;;15.37;;
18360;SDS011;9308;48.550;9.108;2022-12-20T06:31:54;20.30;;;16.83;;
18360;SDS011;9308;48.550;9.108;2022-12-20T06:34:20;17.67;;;15.97;;
18360;SDS011;9308;48.550;9.108;2022-12-20T06:36:45;18.10;;;16.40;;
18360;SDS011;9308;48.550;9.108;2022-12-20T06:39:11;16.07;;;14.47;;
18360;SDS011;9308;48.550;9.108;2022-12-20T06:41:38;16.27;;;14.83;;
18360;SDS011;9308;48.550;9.108;2022-12-20T06:44:05;17.00;;;15.20;;
18360;SDS011;9308;48.550;9.108;2022-12-20T06:46:31;15.80;;;14.30;;
18360;SDS011;9308;48.550;9.108;2022-12-20T06:48:56;16.47;;;14.97;;
18360;SDS011;9308;48.550;9.108;2022-12-20T06:51:22;17.20;;;15.50;;
18360;SDS011;9308;48.550;9.108;2022-12-20T06:53:47;19.00;;;16.07;;
18360;SDS011;9308;48.550;9.108;2022-12-20T06:56:13;17.73;;;16.00;;
18360;SDS011;9308;48.550;9.108;2022-12-20T06:58:38;15.90;;;14.30;;
18360;SDS011;9308;48.550;9.108;2022-12-20T07:01:04;18.33;;;16.53;;
18360;SDS011;9308;48.550;9.108;2022-12-20T07:03:30;24.37;;;21.60;;
18360;SDS011;9308;48.550;9.108;2022-12-20T07:05:55;27.20;;;22.80;;
18360;SDS011;9308;48.550;9.108;2022-12-20T07:08:21;31.40;;;24.57;;
18360;SDS011;9308;48.550;9.108;2022-12-20T07:10:47;22.20;;;19.83;;
18360;SDS011;9308;48.550;9.108;2022-12-20T07:13:12;20.80;;;17.30;;
18360;SDS011;9308;48.550;9.108;2022-12-20T07:15:38;17.03;;;15.43;;
18360;SDS011;9308;48.550;9.108;2022-12-20T07:18:03;16.67;;;14.90;;
18360;SDS011;9308;48.550;9.108;2022-12-20T07:20:29;17.50;;;14.63;;
18360;SDS011;9308;48.550;9.108;2022-12-20T07:22:55;18.13;;;14.00;;
18360;SDS011;9308;48.550;9.108;2022-12-20T07:25:21;14.00;;;12.60;;
18360;SDS011;9308;48.550;9.108;2022-12-20T07:27:47;14.90;;;12.30;;
18360;SDS011;9308;48.550;9.108;2022-12-20T07:30:18;13.60;;;12.13;;
18360;SDS011;9308;48.550;9.108;2022-12-20T07:32:45;12.00;;;10.77;;
18360;SDS011;9308;48.550;9.108;2022-12-20T07:35:12;13.30;;;12.00;;
18360;SDS011;9308;48.550;9.108;2022-12-20T07:37:38;14.03;;;12.60;;
18360;SDS011;9308;48.550;9.108;2022-12-20T07:40:04;15.03;;;13.60;;
18360;SDS011;9308;48.550;9.108;2022-12-20T07:42:30;15.50;;;13.90;;
18360;SDS011;9308;48.550;9.108;2022-12-20T07:44:56;18.10;;;16.30;;
18360;SDS011;9308;48.550;9.108;2022-12-20T07:47:21;17.67;;;15.87;;
18360;SDS011;9308;48.550;9.108;2022-12-20T07:49:47;17.93;;;16.23;;
18360;SDS011;9308;48.550;9.108;2022-12-20T07:52:13;18.07;;;16.37;;
18360;SDS011;9308;48.550;9.108;2022-12-20T07:54:44;19.83;;;16.03;;
18360;SDS011;9308;48.550;9.108;2022-12-20T07:57:14;20.83;;;18.67;;
18360;SDS011;9308;48.550;9.108;2022-12-20T07:59:46;18.60;;;16.60;;
18360;SDS011;9308;48.550;9.108;2022-12-20T08:02:20;18.70;;;16.83;;
18360;SDS011;9308;48.550;9.108;2022-12-20T08:04:50;20.33;;;18.23;;
18360;SDS011;9308;48.550;9.108;2022-12-20T08:07:17;21.07;;;18.20;;
18360;SDS011;9308;48.550;9.108;2022-12-20T08:09:43;19.77;;;17.97;;
18360;SDS011;9308;48.550;9.108;2022-12-20T08:12:10;20.90;;;18.50;;
18360;SDS011;9308;48.550;9.108;2022-12-20T08:14:40;20.10;;;18.20;;
18360;SDS011;9308;48.550;9.108;2022-12-20T08:17:06;20.00;;;18.00;;
18360;SDS011;9308;48.550;9.108;2022-12-20T08:19:31;21.10;;;18.80;;
18360;SDS011;9308;48.550;9.108;2022-12-20T08:21:57;19.03;;;17.37;;
18360;SDS011;9308;48.550;9.108;2022-12-20T08:24:22;18.27;;;16.37;;
18360;SDS011;9308;48.550;9.108;2022-12-20T08:26:48;19.03;;;16.33;;
18360;SDS011;9308;48.550;9.108;2022-12-20T08:29:13;17.00;;;15.30;;
18360;SDS011;9308;48.550;9.108;2022-12-20T08:31:39;17.50;;;15.80;;
18360;SDS011;9308;48.550;9.108;2022-12-20T08:34:08;18.03;;;16.00;;
18360;SDS011;9308;48.550;9.108;2022-12-20T08:36:34;17.97;;;16.27;;
18360;SDS011;9308;48.550;9.108;2022-12-20T08:39:03;18.90;;;16.80;;
18360;SDS011;9308;48.550;9.108;2022-12-20T08:41:29;18.90;;;17.00;;
18360;SDS011;9308;48.550;9.108;2022-12-20T08:43:55;20.60;;;17.00;;
18360;SDS011;9308;48.550;9.108;2022-12-20T08:46:20;17.40;;;15.53;;
18360;SDS011;9308;48.550;9.108;2022-12-20T08:48:46;19.53;;;17.50;;
18360;SDS011;9308;48.550;9.108;2022-12-20T08:51:11;20.97;;;18.87;;
18360;SDS011;9308;48.550;9.108;2022-12-20T08:53:37;21.53;;;19.33;;
18360;SDS011;9308;48.550;9.108;2022-12-20T08:56:04;21.40;;;19.17;;
18360;SDS011;9308;48.550;9.108;2022-12-20T08:58:34;18.13;;;16.40;;
18360;SDS011;9308;48.550;9.108;2022-12-20T09:01:00;20.60;;;18.50;;
18360;SDS011;9308;48.550;9.108;2022-12-20T09:03:29;25.47;;;22.87;;
18360;SDS011;9308;48.550;9.108;2022-12-20T09:05:55;26.53;;;23.07;;
18360;SDS011;9308;48.550;9.108;2022-12-20T09:08:22;24.17;;;20.87;;
18360;SDS011;9308;48.550;9.108;2022-12-20T09:10:47;21.37;;;19.07;;
18360;SDS011;9308;48.550;9.108;2022-12-20T09:13:13;24.03;;;19.77;;
18360;SDS011;9308;48.550;9.108;2022-12-20T09:15:38;23.00;;;20.50;;
18360;SDS011;9308;48.550;9.108;2022-12-20T09:18:04;20.37;;;18.17;;
18360;SDS011;9308;48.550;9.108;2022-12-20T09:20:29;24.73;;;20.07;;
18360;SDS011;9308;48.550;9.108;2022-12-20T09:22:57;25.20;;;19.03;;
18360;SDS011;9308;48.550;9.108;2022-12-20T09:25:24;18.63;;;16.80;;
18360;SDS011;9308;48.550;9.108;2022-12-20T09:27:50;21.23;;;18.50;;
18360;SDS011;9308;48.550;9.108;2022-12-20T09:30:15;18.73;;;15.73;;
18360;SDS011;9308;48.550;9.108;2022-12-20T09:32:41;17.13;;;15.33;;
18360;SDS011;9308;48.550;9.108;2022-12-20T09:35:06;17.97;;;16.17;;
18360;SDS011;9308;48.550;9.108;2022-12-20T09:37:32;16.13;;;14.53;;
18360;SDS011;9308;48.550;9.108;2022-12-20T09:39:58;18.10;;;16.27;;
18360;SDS011;9308;48.550;9.108;2022-12-20T09:42:24;16.80;;;13.70;;
18360;SDS011;9308;48.550;9.108;2022-12-20T09:44:52;14.63;;;13.13;;
18360;SDS011;9308;48.550;9.108;2022-12-20T09:47:27;14.07;;;12.67;;
18360;SDS011;9308;48.550;9.108;2022-12-20T09:49:54;14.20;;;12.90;;
18360;SDS011;9308;48.550;9.108;2022-12-20T09:57:46;12.70;;;11.60;;
18360;SDS011;9308;48.550;9.108;2022-12-20T10:00:17;14.70;;;13.30;;
18360;SDS011;9308;48.550;9.108;2022-12-20T10:02:43;14.50;;;13.10;;
18360;SDS011;9308;48.550;9.108;2022-12-20T10:05:14;16.53;;;13.37;;
18360;SDS011;9308;48.550;9.108;2022-12-20T10:07:52;15.70;;;14.00;;
18360;SDS011;9308;48.550;9.108;2022-12-20T10:13:04;14.50;;;13.10;;
18360;SDS011;9308;48.550;9.108;2022-12-20T10:15:43;13.20;;;11.90;;
18360;SDS011;9308;48.550;9.108;2022-12-20T10:18:23;13.17;;;11.53;;
18360;SDS011;9308;48.550;9.108;2022-12-20T10:21:39;13.60;;;12.20;;
18360;SDS011;9308;48.550;9.108;2022-12-20T10:24:19;14.50;;;13.20;;
18360;SDS011;9308;48.550;9.108;2022-12-20T10:26:49;14.23;;;12.80;;
18360;SDS011;9308;48.550;9.108;2022-12-20T10:29:16;13.40;;;12.13;;
18360;SDS011;9308;48.550;9.108;2022-12-20T10:31:42;12.73;;;11.63;;
18360;SDS011;9308;48.550;9.108;2022-12-20T10:34:08;13.40;;;11.53;;
18360;SDS011;9308;48.550;9.108;2022-12-20T10:36:34;13.70;;;12.30;;
18360;SDS011;9308;48.550;9.108;2022-12-20T10:39:02;11.87;;;10.63;;
18360;SDS011;9308;48.550;9.108;2022-12-20T10:41:45;12.73;;;11.37;;
18360;SDS011;9308;48.550;9.108;2022-12-20T10:46:58;13.10;;;11.90;;
18360;SDS011;9308;48.550;9.108;2022-12-20T10:52:02;14.20;;;12.83;;
18360;SDS011;9308;48.550;9.108;2022-12-20T10:54:36;12.57;;;11.33;;
18360;SDS011;9308;48.550;9.108;2022-12-20T10:59:45;15.07;;;13.57;;
18360;SDS011;9308;48.550;9.108;2022-12-20T11:04:56;13.90;;;12.60;;
18360;SDS011;9308;48.550;9.108;2022-12-20T11:07:23;14.83;;;13.13;;
18360;SDS011;9308;48.550;9.108;2022-12-20T11:09:53;14.50;;;13.10;;
18360;SDS011;9308;48.550;9.108;2022-12-20T11:12:21;15.67;;;13.60;;
18360;SDS011;9308;48.550;9.108;2022-12-20T11:14:46;14.13;;;12.70;;
18360;SDS011;9308;48.550;9.108;2022-12-20T11:30:20;14.50;;;13.03;;
18360;SDS011;9308;48.550;9.108;2022-12-20T11:38:34;17.60;;;15.00;;
18360;SDS011;9308;48.550;9.108;2022-12-20T11:41:10;21.47;;;17.97;;
18360;SDS011;9308;48.550;9.108;2022-12-20T11:52:13;19.60;;;16.17;;
18360;SDS011;9308;48.550;9.108;2022-12-20T11:54:46;15.00;;;12.93;;
18360;SDS011;9308;48.550;9.108;2022-12-20T11:57:19;14.17;;;12.90;;
18360;SDS011;9308;48.550;9.108;2022-12-20T11:59:53;13.40;;;12.10;;
18360;SDS011;9308;48.550;9.108;2022-12-20T12:05:08;13.90;;;12.60;;
18360;SDS011;9308;48.550;9.108;2022-12-20T12:07:43;12.70;;;11.50;;
18360;SDS011;9308;48.550;9.108;2022-12-20T12:12:42;13.97;;;12.57;;
18360;SDS011;9308;48.550;9.108;2022-12-20T12:15:16;13.93;;;12.53;;
18360;SDS011;9308;48.550;9.108;2022-12-20T12:17:45;14.63;;;13.30;;
18360;SDS011;9308;48.550;9.108;2022-12-20T12:26:27;14.50;;;13.00;;
18360;SDS011;9308;48.550;9.108;2022-12-20T12:28:55;17.23;;;15.13;;
18360;SDS011;9308;48.550;9.108;2022-12-20T12:31:37;16.60;;;14.90;;
18360;SDS011;9308;48.550;9.108;2022-12-20T12:43:05;19.03;;;17.20;;
18360;SDS011;9308;48.550;9.108;2022-12-20T12:45:55;15.60;;;14.20;;
18360;SDS011;9308;48.550;9.108;2022-12-20T12:51:00;15.87;;;14.43;;
18360;SDS011;9308;48.550;9.108;2022-12-20T12:53:40;15.77;;;14.27;;
18360;SDS011;9308;48.550;9.108;2022-12-20T13:04:08;14.83;;;13.30;;
18360;SDS011;9308;48.550;9.108;2022-12-20T13:11:49;16.27;;;14.77;;
18360;SDS011;9308;48.550;9.108;2022-12-20T13:16:41;24.20;;;15.40;;
18360;SDS011;9308;48.550;9.108;2022-12-20T13:19:15;15.87;;;14.37;;
18360;SDS011;9308;48.550;9.108;2022-12-20T13:29:51;15.23;;;13.63;;
18360;SDS011;9308;48.550;9.108;2022-12-20T13:40:37;16.00;;;14.50;;
18360;SDS011;9308;48.550;9.108;2022-12-20T13:43:27;15.03;;;13.63;;
18360;SDS011;9308;48.550;9.108;2022-12-20T13:51:01;14.07;;;12.67;;
18360;SDS011;9308;48.550;9.108;2022-12-20T13:53:28;16.57;;;14.97;;
18360;SDS011;9308;48.550;9.108;2022-12-20T13:55:54;15.43;;;14.03;;
18360;SDS011;9308;48.550;9.108;2022-12-20T14:01:10;15.53;;;14.13;;
18360;SDS011;9308;48.550;9.108;2022-12-20T14:03:41;17.07;;;15.53;;
18360;SDS011;9308;48.550;9.108;2022-12-20T14:06:10;16.87;;;15.27;;
18360;SDS011;9308;48.550;9.108;2022-12-20T14:08:39;17.00;;;15.50;;
18360;SDS011;9308;48.550;9.108;2022-12-20T14:11:12;17.40;;;15.80;;
18360;SDS011;9308;48.550;9.108;2022-12-20T14:13:49;18.43;;;16.73;;
18360;SDS011;9308;48.550;9.108;2022-12-20T14:16:26;17.80;;;16.10;;
18360;SDS011;9308;48.550;9.108;2022-12-20T14:21:22;18.60;;;16.77;;
18360;SDS011;9308;48.550;9.108;2022-12-20T14:23:49;18.07;;;16.30;;
18360;SDS011;9308;48.550;9.108;2022-12-20T14:26:24;17.93;;;16.23;;
18360;SDS011;9308;48.550;9.108;2022-12-20T14:28:52;19.53;;;17.80;;
18360;SDS011;9308;48.550;9.108;2022-12-20T14:31:21;20.67;;;18.50;;
18360;SDS011;9308;48.550;9.108;2022-12-20T14:33:49;28.53;;;25.63;;
18360;SDS011;9308;48.550;9.108;2022-12-20T14:38:47;23.87;;;21.70;;
18360;SDS011;9308;48.550;9.108;2022-12-20T14:44:03;20.13;;;18.37;;
18360;SDS011;9308;48.550;9.108;2022-12-20T14:46:39;18.90;;;17.20;;
18360;SDS011;9308;48.550;9.108;2022-12-20T14:51:40;18.07;;;16.57;;
18360;SDS011;9308;48.550;9.108;2022-12-20T14:54:05;24.37;;;22.27;;
18360;SDS011;9308;48.550;9.108;2022-12-20T14:56:34;22.13;;;20.30;;
18360;SDS011;9308;48.550;9.108;2022-12-20T14:59:00;22.17;;;20.37;;
18360;SDS011;9308;48.550;9.108;2022-12-20T15:01:35;21.83;;;20.17;;
18360;SDS011;9308;48.550;9.108;2022-12-20T15:04:00;24.70;;;22.70;;
18360;SDS011;9308;48.550;9.108;2022-12-20T15:06:33;24.40;;;22.50;;
18360;SDS011;9308;48.550;9.108;2022-12-20T15:09:01;21.93;;;20.20;;
18360;SDS011;9308;48.550;9.108;2022-12-20T15:11:29;20.43;;;18.80;;
18360;SDS011;9308;48.550;9.108;2022-12-20T15:13:55;19.70;;;17.93;;
18360;SDS011;9308;48.550;9.108;2022-12-20T15:16:29;18.17;;;16.37;;
18360;SDS011;9308;48.550;9.108;2022-12-20T15:21:36;17.20;;;15.40;;
18360;SDS011;9308;48.550;9.108;2022-12-20T15:24:08;18.30;;;16.37;;
18360;SDS011;9308;48.550;9.108;2022-12-20T15:26:35;15.57;;;14.17;;
18360;SDS011;9308;48.550;9.108;2022-12-20T15:29:01;16.87;;;15.07;;
18360;SDS011;9308;48.550;9.108;2022-12-20T15:31:28;15.60;;;14.20;;
18360;SDS011;9308;48.550;9.108;2022-12-20T15:33:54;14.80;;;13.40;;
18360;SDS011;9308;48.550;9.108;2022-12-20T15:36:23;13.80;;;12.40;;
18360;SDS011;9308;48.550;9.108;2022-12-20T15:38:50;14.40;;;13.00;;
18360;SDS011;9308;48.550;9.108;2022-12-20T15:43:49;15.40;;;14.00;;
18360;SDS011;9308;48.550;9.108;2022-12-20T15:46:19;14.93;;;13.43;;
18360;SDS011;9308;48.550;9.108;2022-12-20T15:48:44;15.37;;;13.83;;
18360;SDS011;9308;48.550;9.108;2022-12-20T15:51:12;15.40;;;13.80;;
18360;SDS011;9308;48.550;9.108;2022-12-20T15:53:40;15.60;;;14.07;;
18360;SDS011;9308;48.550;9.108;2022-12-20T15:56:07;15.17;;;13.70;;
18360;SDS011;9308;48.550;9.108;2022-12-20T15:58:41;15.27;;;13.70;;
18360;SDS011;9308;48.550;9.108;2022-12-20T16:01:08;17.00;;;15.20;;
18360;SDS011;9308;48.550;9.108;2022-12-20T16:03:37;20.00;;;17.30;;
18360;SDS011;9308;48.550;9.108;2022-12-20T16:06:02;21.87;;;19.40;;
18360;SDS011;9308;48.550;9.108;2022-12-20T16:08:28;23.33;;;20.93;;
18360;SDS011;9308;48.550;9.108;2022-12-20T16:10:54;22.67;;;20.37;;
18360;SDS011;9308;48.550;9.108;2022-12-20T16:13:21;24.63;;;20.63;;
18360;SDS011;9308;48.550;9.108;2022-12-20T16:15:48;21.10;;;19.00;;
18360;SDS011;9308;48.550;9.108;2022-12-20T16:18:14;23.20;;;20.87;;
18360;SDS011;9308;48.550;9.108;2022-12-20T16:20:40;22.53;;;20.17;;
18360;SDS011;9308;48.550;9.108;2022-12-20T16:23:14;23.87;;;21.37;;
18360;SDS011;9308;48.550;9.108;2022-12-20T16:25:42;29.47;;;25.90;;
18360;SDS011;9308;48.550;9.108;2022-12-20T16:28:07;25.97;;;23.27;;
18360;SDS011;9308;48.550;9.108;2022-12-20T16:30:33;21.93;;;19.63;;
18360;SDS011;9308;48.550;9.108;2022-12-20T16:32:59;24.57;;;22.37;;
18360;SDS011;9308;48.550;9.108;2022-12-20T16:35:26;24.00;;;21.70;;
18360;SDS011;9308;48.550;9.108;2022-12-20T16:37:54;25.77;;;23.37;;
18360;SDS011;9308;48.550;9.108;2022-12-20T16:40:22;22.90;;;20.70;;
18360;SDS011;9308;48.550;9.108;2022-12-20T16:42:48;24.20;;;21.80;;
18360;SDS011;9308;48.550;9.108;2022-12-20T16:45:15;26.03;;;23.47;;
18360;SDS011;9308;48.550;9.108;2022-12-20T16:47:50;24.27;;;21.97;;
18360;SDS011;9308;48.550;9.108;2022-12-20T16:50:17;26.23;;;23.73;;
18360;SDS011;9308;48.550;9.108;2022-12-20T16:52:44;24.77;;;22.13;;
18360;SDS011;9308;48.550;9.108;2022-12-20T16:55:12;24.83;;;22.20;;
18360;SDS011;9308;48.550;9.108;2022-12-20T16:57:39;26.03;;;23.60;;
18360;SDS011;9308;48.550;9.108;2022-12-20T17:00:05;25.90;;;23.57;;
18360;SDS011;9308;48.550;9.108;2022-12-20T17:02:32;27.60;;;25.00;;